Time;durP1;ratioP1;P1;durP2;ratioP2;P2;SDS_P1;SDS_P2;PMS_P1;PMS_P2;Temp;Humidity;BMP_temperature;BMP_pressure;BME280_temperature;BME280_humidity;BME280_pressure;Samples;Min_cycle;Max_cycle;Signal;HPM_P1;HPM_P2
2024/04/21 00:02:56;;;;;;;;;36.75;33.50;;;;;;;;6491723;31;8935;-64
2024/04/21 00:08:58;;;;;;;;;38.00;35.25;;;;;;;;6491521;39;8923;-64
2024/04/21 00:15:03;;;;;;;;;31.00;29.50;;;;;;;;6491355;39;8931;-65
2024/04/21 00:21:05;;;;;;;;;30.00;29.50;;;;;;;;6491070;31;8864;-65
2024/04/21 00:27:08;;;;;;;;;33.00;30.50;;;;;;;;6491050;39;8871;-64
2024/04/21 00:33:15;;;;;;;;;29.25;29.25;;;;;;;;6492956;31;9033;-65
2024/04/21 00:39:18;;;;;;;;;31.25;31.25;;;;;;;;6491199;46;9041;-64
2024/04/21 00:45:22;;;;;;;;;32.50;30.75;;;;;;;;6491910;46;9010;-64
2024/04/21 00:57:40;;;;;;;;;26.25;22.50;;;;;;;;6491732;39;9582;-64
2024/04/21 01:03:58;;;;;;;;;26.25;25.75;;;;;;;;6492490;39;9587;-67
2024/04/21 01:10:19;;;;;;;;;31.50;30.00;;;;;;;;6490967;46;8984;-64
2024/04/21 01:16:24;;;;;;;;;27.50;26.00;;;;;;;;6490664;46;8934;-64
2024/04/21 01:22:30;;;;;;;;;31.50;31.00;;;;;;;;6491078;39;8863;-65
2024/04/21 01:28:35;;;;;;;;;34.75;33.00;;;;;;;;6491988;39;8900;-64
2024/04/21 01:34:39;;;;;;;;;28.50;26.50;;;;;;;;6491012;39;8889;-65
2024/04/21 01:40:41;;;;;;;;;15.50;13.75;;;;;;;;6490550;39;9031;-64
2024/04/21 01:46:56;;;;;;;;;27.75;24.75;;;;;;;;6491023;39;8877;-65
2024/04/21 01:52:58;;;;;;;;;27.25;25.75;;;;;;;;6490903;39;8963;-64
2024/04/21 01:59:07;;;;;;;;;29.25;26.75;;;;;;;;6491046;39;8952;-65
2024/04/21 02:05:14;;;;;;;;;33.50;33.00;;;;;;;;6490537;39;8969;-63
2024/04/21 02:11:21;;;;;;;;;34.50;32.50;;;;;;;;6491679;39;8900;-64
2024/04/21 02:17:22;;;;;;;;;36.25;34.50;;;;;;;;6491093;39;9026;-64
2024/04/21 02:23:25;;;;;;;;;33.33;30.67;;;;;;;;6490860;39;8955;-65
2024/04/21 02:29:27;;;;;;;;;36.00;36.00;;;;;;;;6491285;39;9006;-65
2024/04/21 02:35:34;;;;;;;;;36.75;33.00;;;;;;;;6490178;39;9042;-65
2024/04/21 02:41:42;;;;;;;;;35.25;34.00;;;;;;;;6491523;39;8892;-65
2024/04/21 02:47:44;;;;;;;;;34.25;34.25;;;;;;;;6490697;39;8954;-66
2024/04/21 02:53:50;;;;;;;;;29.50;27.25;;;;;;;;6490617;39;8902;-64
2024/04/21 02:59:55;;;;;;;;;34.50;31.50;;;;;;;;6491426;31;8963;-65
2024/04/21 03:06:02;;;;;;;;;33.00;32.00;;;;;;;;6490186;39;9058;-63
2024/04/21 03:12:14;;;;;;;;;35.25;29.50;;;;;;;;6490438;39;9002;-64
2024/04/21 03:18:22;;;;;;;;;33.00;31.75;;;;;;;;6491388;31;8920;-64
2024/04/21 03:24:49;;;;;;;;;29.00;26.00;;;;;;;;6492974;39;8977;-65
2024/04/21 03:30:59;;;;;;;;;31.00;29.25;;;;;;;;6492408;39;8903;-64
2024/04/21 03:37:06;;;;;;;;;27.75;25.50;;;;;;;;6492301;46;8923;-64
2024/04/21 03:43:08;;;;;;;;;32.25;26.75;;;;;;;;6492077;46;8978;-64
2024/04/21 03:49:10;;;;;;;;;28.00;27.25;;;;;;;;6492088;39;9527;-65
2024/04/21 03:55:14;;;;;;;;;18.25;17.00;;;;;;;;6492239;39;10007;-64
2024/04/21 04:01:18;;;;;;;;;23.25;23.00;;;;;;;;6492124;39;9609;-65
2024/04/21 04:07:27;;;;;;;;;26.25;25.25;;;;;;;;6490826;39;9617;-64
2024/04/21 04:13:34;;;;;;;;;31.00;28.00;;;;;;;;6492107;39;8879;-65
2024/04/21 04:19:45;;;;;;;;;26.75;26.50;;;;;;;;6492456;39;8904;-63
2024/04/21 04:25:52;;;;;;;;;27.00;22.75;;;;;;;;6492078;39;8890;-64
2024/04/21 04:32:08;;;;;;;;;25.25;22.25;;;;;;;;6492268;39;8918;-63
2024/04/21 04:38:12;;;;;;;;;27.50;24.50;;;;;;;;6491942;46;8943;-65
2024/04/21 04:44:15;;;;;;;;;25.00;23.00;;;;;;;;6491956;39;8903;-66
2024/04/21 04:50:17;;;;;;;;;23.00;22.50;;;;;;;;6491925;39;8867;-64
2024/04/21 04:56:23;;;;;;;;;28.25;24.25;;;;;;;;6492483;39;9578;-64
2024/04/21 05:02:27;;;;;;;;;25.00;21.50;;;;;;;;6491592;39;9642;-66
2024/04/21 05:08:32;;;;;;;;;25.75;25.25;;;;;;;;6491409;39;9066;-64
2024/04/21 05:14:36;;;;;;;;;23.25;20.00;;;;;;;;6490432;39;8880;-64
2024/04/21 05:20:38;;;;;;;;;25.00;21.00;;;;;;;;6491214;39;9049;-63
2024/04/21 05:26:40;;;;;;;;;21.00;20.75;;;;;;;;6492059;39;9028;-65
2024/04/21 05:32:47;;;;;;;;;24.00;23.25;;;;;;;;6491208;39;8867;-64
2024/04/21 05:38:58;;;;;;;;;26.25;23.50;;;;;;;;6491302;39;8915;-65
2024/04/21 05:45:00;;;;;;;;;21.00;19.75;;;;;;;;6491378;39;8851;-64
2024/04/21 05:51:06;;;;;;;;;19.75;19.75;;;;;;;;6491067;46;8986;-64
2024/04/21 05:57:10;;;;;;;;;21.00;19.50;;;;;;;;6491837;31;8942;-65
2024/04/21 06:03:11;;;;;;;;;18.50;18.50;;;;;;;;6491115;46;8951;-65
2024/04/21 06:09:15;;;;;;;;;20.50;18.50;;;;;;;;6490173;46;8936;-65
2024/04/21 06:15:18;;;;;;;;;19.00;18.75;;;;;;;;6548918;36;8892;-63
2024/04/21 06:21:21;;;;;;;;;17.33;15.33;;;;;;;;6491492;31;8956;-65
2024/04/21 06:27:26;;;;;;;;;19.50;17.50;;;;;;;;6490963;39;8871;-66
2024/04/21 06:33:31;;;;;;;;;17.67;16.00;;;;;;;;6491128;46;8860;-64
2024/04/21 06:39:40;;;;;;;;;17.67;16.33;;;;;;;;6491163;39;8907;-66
2024/04/21 06:45:49;;;;;;;;;13.67;13.67;;;;;;;;6491175;39;8875;-65
2024/04/21 06:51:52;;;;;;;;;14.67;14.67;;;;;;;;6490809;39;8860;-65
2024/04/21 06:57:56;;;;;;;;;15.00;15.00;;;;;;;;6490257;47;8931;-64
2024/04/21 07:03:57;;;;;;;;;12.33;12.33;;;;;;;;6489692;47;8884;-65
2024/04/21 07:10:04;;;;;;;;;14.33;13.33;;;;;;;;6490327;39;9035;-64
2024/04/21 07:16:07;;;;;;;;;12.00;12.00;;;;;;;;6489698;39;8923;-67
2024/04/21 07:22:28;;;;;;;;;16.00;14.00;;;;;;;;6490461;47;8922;-66
2024/04/21 07:28:32;;;;;;;;;11.33;11.33;;;;;;;;6489918;39;8939;-65
2024/04/21 07:34:37;;;;;;;;;12.00;10.67;;;;;;;;6490947;31;8918;-66
2024/04/21 07:40:43;;;;;;;;;14.67;12.00;;;;;;;;6490278;39;9456;-65
2024/04/21 07:46:47;;;;;;;;;12.67;12.00;;;;;;;;6489824;46;8986;-66
2024/04/21 07:52:53;;;;;;;;;11.67;11.00;;;;;;;;6490209;39;8888;-66
2024/04/21 07:59:02;;;;;;;;;13.33;9.33;;;;;;;;6489508;39;9061;-65
2024/04/21 08:05:05;;;;;;;;;11.00;8.33;;;;;;;;6491556;39;9007;-64
2024/04/21 08:11:11;;;;;;;;;11.00;11.00;;;;;;;;6492559;31;8984;-65
2024/04/21 08:17:13;;;;;;;;;11.00;11.00;;;;;;;;6492564;46;8977;-65
2024/04/21 08:23:20;;;;;;;;;12.00;11.33;;;;;;;;6492390;31;8928;-65
2024/04/21 08:29:36;;;;;;;;;13.00;11.67;;;;;;;;6491626;46;8885;-65
2024/04/21 08:35:40;;;;;;;;;11.67;11.00;;;;;;;;6492203;39;8986;-64
2024/04/21 08:41:47;;;;;;;;;11.67;11.67;;;;;;;;6491377;46;8947;-65
2024/04/21 08:47:52;;;;;;;;;9.00;9.00;;;;;;;;6492470;39;9523;-67
2024/04/21 08:53:55;;;;;;;;;11.00;9.67;;;;;;;;6492114;39;8936;-65
2024/04/21 09:00:01;;;;;;;;;10.00;10.00;;;;;;;;6492418;39;9574;-65
2024/04/21 09:06:08;;;;;;;;;10.33;8.00;;;;;;;;6491348;46;8945;-66
2024/04/21 09:12:12;;;;;;;;;10.33;10.33;;;;;;;;6490376;39;9534;-65
2024/04/21 09:18:21;;;;;;;;;7.00;6.00;;;;;;;;6491055;39;9094;-66
2024/04/21 09:24:26;;;;;;;;;7.33;7.33;;;;;;;;6490558;39;8884;-65
2024/04/21 09:30:29;;;;;;;;;10.67;8.67;;;;;;;;6491340;39;9130;-67
2024/04/21 09:36:34;;;;;;;;;7.00;7.00;;;;;;;;6491502;39;8978;-64
2024/04/21 09:42:36;;;;;;;;;9.00;8.00;;;;;;;;6491110;31;8979;-65
2024/04/21 09:48:43;;;;;;;;;9.33;9.33;;;;;;;;6491254;31;8887;-65
2024/04/21 09:54:48;;;;;;;;;10.00;10.00;;;;;;;;6490619;39;9071;-66
2024/04/21 10:00:55;;;;;;;;;10.00;10.00;;;;;;;;6490911;31;9070;-64
2024/04/21 10:06:59;;;;;;;;;9.00;9.00;;;;;;;;6492096;39;8954;-65
2024/04/21 10:13:02;;;;;;;;;10.33;9.67;;;;;;;;6491013;31;8963;-65
2024/04/21 10:19:08;;;;;;;;;9.33;9.00;;;;;;;;6490152;31;8932;-65
2024/04/21 10:25:19;;;;;;;;;8.33;8.33;;;;;;;;6491314;39;10152;-64
2024/04/21 10:31:30;;;;;;;;;7.67;6.67;;;;;;;;6491036;39;8918;-66
2024/04/21 10:37:34;;;;;;;;;7.33;5.00;;;;;;;;6490715;46;8943;-65
2024/04/21 10:43:38;;;;;;;;;6.00;6.00;;;;;;;;6491047;39;8935;-66
2024/04/21 10:49:48;;;;;;;;;9.33;7.67;;;;;;;;6490921;39;8864;-66
2024/04/21 10:56:00;;;;;;;;;9.00;7.33;;;;;;;;6490326;39;9025;-64
2024/04/21 11:02:06;;;;;;;;;5.00;5.00;;;;;;;;6491691;39;8956;-65
2024/04/21 11:08:08;;;;;;;;;6.00;6.00;;;;;;;;6490115;39;8950;-65
2024/04/21 11:14:21;;;;;;;;;6.00;6.00;;;;;;;;6489674;39;8974;-65
2024/04/21 11:20:27;;;;;;;;;10.00;9.00;;;;;;;;6490873;39;8982;-64
2024/04/21 11:26:29;;;;;;;;;10.33;10.00;;;;;;;;6489966;47;8967;-65
2024/04/21 11:32:32;;;;;;;;;12.00;10.00;;;;;;;;6490257;47;8912;-65
2024/04/21 11:38:49;;;;;;;;;7.33;7.33;;;;;;;;6491368;46;8908;-65
2024/04/21 11:44:58;;;;;;;;;10.33;9.00;;;;;;;;6493144;39;8947;-66
2024/04/21 11:51:15;;;;;;;;;8.67;8.67;;;;;;;;6492743;39;8915;-66
2024/04/21 11:57:21;;;;;;;;;8.00;7.00;;;;;;;;6492393;39;8919;-65
2024/04/21 12:03:29;;;;;;;;;8.67;8.33;;;;;;;;6492109;46;9046;-66
2024/04/21 12:09:33;;;;;;;;;6.67;6.67;;;;;;;;6491608;39;8915;-65
2024/04/21 12:15:37;;;;;;;;;8.75;8.75;;;;;;;;6490910;46;8904;-65
2024/04/21 12:21:44;;;;;;;;;10.00;9.00;;;;;;;;6491974;31;8991;-65
2024/04/21 12:27:53;;;;;;;;;10.75;7.50;;;;;;;;6492027;39;8938;-64
2024/04/21 12:33:57;;;;;;;;;15.67;15.00;;;;;;;;6491519;39;9020;-66
2024/04/21 12:40:06;;;;;;;;;5.67;5.67;;;;;;;;6491389;39;9678;-66
2024/04/21 12:46:11;;;;;;;;;7.33;7.33;;;;;;;;6492137;39;8915;-65
2024/04/21 12:52:14;;;;;;;;;15.00;12.67;;;;;;;;6491082;39;8899;-66
2024/04/21 12:58:25;;;;;;;;;13.33;11.00;;;;;;;;6491903;31;8875;-65
2024/04/21 13:04:29;;;;;;;;;13.00;11.33;;;;;;;;6491142;46;9043;-65
2024/04/21 13:10:34;;;;;;;;;7.00;7.00;;;;;;;;6491043;39;9104;-66
2024/04/21 13:16:35;;;;;;;;;8.67;8.67;;;;;;;;6491544;46;8946;-65
2024/04/21 13:22:36;;;;;;;;;11.00;11.00;;;;;;;;6492028;39;8860;-65
2024/04/21 13:28:42;;;;;;;;;10.00;10.00;;;;;;;;6491184;46;8888;-65
2024/04/21 13:34:46;;;;;;;;;7.00;7.00;;;;;;;;6491835;39;9042;-65
2024/04/21 13:41:00;;;;;;;;;7.00;5.67;;;;;;;;6491157;39;8930;-67
2024/04/21 13:47:11;;;;;;;;;6.33;6.33;;;;;;;;6491016;46;8914;-65
2024/04/21 13:53:21;;;;;;;;;8.67;8.67;;;;;;;;6491169;39;8864;-65
2024/04/21 13:59:28;;;;;;;;;8.00;8.00;;;;;;;;6490511;39;9113;-65
2024/04/21 14:05:32;;;;;;;;;12.67;10.67;;;;;;;;6490490;39;8903;-65
2024/04/21 14:11:41;;;;;;;;;16.00;15.00;;;;;;;;6491817;39;8947;-66
2024/04/21 14:17:42;;;;;;;;;7.00;7.00;;;;;;;;6490618;46;8923;-67
2024/04/21 14:23:54;;;;;;;;;11.67;11.00;;;;;;;;6490753;39;8895;-65
2024/04/21 14:30:03;;;;;;;;;12.00;12.00;;;;;;;;6490168;31;8879;-66
2024/04/21 14:36:07;;;;;;;;;10.00;10.00;;;;;;;;6491354;39;8947;-66
2024/04/21 14:42:11;;;;;;;;;11.67;11.67;;;;;;;;6490304;39;8992;-66
2024/04/21 14:48:15;;;;;;;;;7.33;7.00;;;;;;;;6490230;39;9022;-66
2024/04/21 14:54:24;;;;;;;;;12.67;11.00;;;;;;;;6489943;47;8926;-66
2024/04/21 15:00:44;;;;;;;;;9.33;8.33;;;;;;;;6536509;31;9082;-66
2024/04/21 15:06:53;;;;;;;;;17.33;15.33;;;;;;;;6489301;47;8974;-65
2024/04/21 15:13:00;;;;;;;;;11.67;11.00;;;;;;;;6491574;46;8891;-65
2024/04/21 15:19:02;;;;;;;;;12.33;12.00;;;;;;;;6492349;39;9038;-65
2024/04/21 15:25:04;;;;;;;;;18.33;18.00;;;;;;;;6493160;39;8887;-65
2024/04/21 15:31:07;;;;;;;;;12.33;12.33;;;;;;;;6492635;39;9631;-66
2024/04/21 15:37:11;;;;;;;;;14.00;14.00;;;;;;;;6492689;39;9574;-65
2024/04/21 15:43:41;;;;;;;;;13.00;13.00;;;;;;;;6493308;39;8959;-64
2024/04/21 15:49:45;;;;;;;;;20.33;20.33;;;;;;;;6492039;46;8872;-66
2024/04/21 15:55:48;;;;;;;;;14.33;14.33;;;;;;;;6492200;39;9609;-65
2024/04/21 16:01:52;;;;;;;;;14.00;11.00;;;;;;;;6490685;39;8931;-65
2024/04/21 16:07:57;;;;;;;;;14.33;12.67;;;;;;;;6491851;39;9006;-66
2024/04/21 16:13:59;;;;;;;;;14.67;14.00;;;;;;;;6492938;31;9479;-64
2024/04/21 16:20:03;;;;;;;;;11.00;11.00;;;;;;;;6492459;31;8919;-66
2024/04/21 16:26:05;;;;;;;;;15.00;14.67;;;;;;;;6491399;46;8883;-65
2024/04/21 16:32:18;;;;;;;;;24.33;24.33;;;;;;;;6491156;46;8891;-66
2024/04/21 16:38:22;;;;;;;;;15.67;15.67;;;;;;;;6492099;39;8985;-66
2024/04/21 16:44:33;;;;;;;;;18.33;18.33;;;;;;;;6491138;46;9007;-65
2024/04/21 16:50:39;;;;;;;;;16.33;16.33;;;;;;;;6492376;39;8836;-65
2024/04/21 16:56:49;;;;;;;;;19.00;19.00;;;;;;;;6492155;46;8927;-64
2024/04/21 17:02:54;;;;;;;;;25.67;21.33;;;;;;;;6491355;31;9034;-66
2024/04/21 17:08:57;;;;;;;;;17.67;16.67;;;;;;;;6493278;39;9595;-66
2024/04/21 17:15:00;;;;;;;;;18.67;18.00;;;;;;;;6490795;39;8884;-66
2024/04/21 17:21:13;;;;;;;;;16.00;16.00;;;;;;;;6490257;46;8915;-66
2024/04/21 17:27:17;;;;;;;;;18.67;17.67;;;;;;;;6491294;39;8907;-66
2024/04/21 17:33:20;;;;;;;;;22.67;18.67;;;;;;;;6490893;46;9067;-67
2024/04/21 17:39:26;;;;;;;;;17.00;16.67;;;;;;;;6491143;46;8887;-66
2024/04/21 17:45:45;;;;;;;;;18.33;18.33;;;;;;;;6491789;39;8918;-65
2024/04/21 17:51:50;;;;;;;;;23.67;23.00;;;;;;;;6491481;46;8902;-64
2024/04/21 17:58:00;;;;;;;;;19.00;19.00;;;;;;;;6491652;39;9042;-65
2024/04/21 18:04:04;;;;;;;;;18.00;17.00;;;;;;;;6491232;39;9676;-66
2024/04/21 18:10:08;;;;;;;;;22.00;20.67;;;;;;;;6491363;46;8915;-65
2024/04/21 18:16:18;;;;;;;;;22.50;19.00;;;;;;;;6490933;31;8903;-66
2024/04/21 18:22:36;;;;;;;;;17.67;16.33;;;;;;;;6490807;39;8938;-66
2024/04/21 18:28:42;;;;;;;;;20.00;18.33;;;;;;;;6491129;39;8908;-65
2024/04/21 18:34:45;;;;;;;;;19.00;19.00;;;;;;;;6491321;31;9057;-65
2024/04/21 18:40:54;;;;;;;;;19.00;17.50;;;;;;;;6489816;39;9027;-65
2024/04/21 18:47:00;;;;;;;;;17.00;15.67;;;;;;;;6491373;39;8868;-66
2024/04/21 18:53:20;;;;;;;;;19.00;17.00;;;;;;;;6490775;39;8915;-64
2024/04/21 18:59:21;;;;;;;;;17.00;16.67;;;;;;;;6490769;39;8959;-65
2024/04/21 19:05:33;;;;;;;;;17.00;17.00;;;;;;;;6490899;39;8891;-66
2024/04/21 19:11:45;;;;;;;;;18.25;17.25;;;;;;;;6489874;47;8911;-65
2024/04/21 19:17:50;;;;;;;;;17.00;17.00;;;;;;;;6488881;46;8911;-66
2024/04/21 19:23:55;;;;;;;;;13.67;11.00;;;;;;;;6491317;31;9557;-65
2024/04/21 19:30:07;;;;;;;;;14.75;14.75;;;;;;;;6491456;31;8964;-63
2024/04/21 19:36:14;;;;;;;;;16.00;15.00;;;;;;;;6490436;47;9043;-64
2024/04/21 19:42:19;;;;;;;;;17.33;17.33;;;;;;;;6490109;39;8931;-65
2024/04/21 19:48:27;;;;;;;;;15.33;13.67;;;;;;;;6490683;39;8892;-65
2024/04/21 19:54:31;;;;;;;;;11.67;11.33;;;;;;;;6490419;39;8891;-64
2024/04/21 20:00:43;;;;;;;;;11.00;11.00;;;;;;;;6491373;39;8952;-64
2024/04/21 20:06:58;;;;;;;;;14.33;10.33;;;;;;;;6492040;39;8907;-64
2024/04/21 20:13:07;;;;;;;;;14.00;13.00;;;;;;;;6491428;46;9022;-64
2024/04/21 20:19:13;;;;;;;;;10.00;10.00;;;;;;;;6492328;39;9090;-66
2024/04/21 20:25:18;;;;;;;;;12.67;12.67;;;;;;;;6491988;39;8848;-65
2024/04/21 20:31:24;;;;;;;;;13.67;13.00;;;;;;;;6492955;31;9565;-66
2024/04/21 20:37:27;;;;;;;;;11.33;11.33;;;;;;;;6492450;46;8911;-66
2024/04/21 20:43:33;;;;;;;;;14.00;14.00;;;;;;;;6492118;31;8898;-66
2024/04/21 20:49:37;;;;;;;;;10.00;9.00;;;;;;;;6491644;46;8926;-64
2024/04/21 20:55:44;;;;;;;;;13.50;11.50;;;;;;;;6491358;46;8868;-65
2024/04/21 21:01:52;;;;;;;;;13.33;11.00;;;;;;;;6492151;39;8948;-67
2024/04/21 21:08:00;;;;;;;;;15.33;15.33;;;;;;;;6491150;39;8966;-66
2024/04/21 21:14:05;;;;;;;;;9.67;9.67;;;;;;;;6491927;39;8856;-65
2024/04/21 21:20:11;;;;;;;;;12.67;10.67;;;;;;;;6492058;39;9054;-65
2024/04/21 21:26:15;;;;;;;;;11.00;11.00;;;;;;;;6491958;31;8892;-65
2024/04/21 21:32:16;;;;;;;;;14.33;14.33;;;;;;;;6491829;39;8896;-65
2024/04/21 21:38:25;;;;;;;;;13.33;13.00;;;;;;;;6491702;39;8911;-65
2024/04/21 21:44:28;;;;;;;;;15.33;13.33;;;;;;;;6491468;39;8939;-64
2024/04/21 21:50:44;;;;;;;;;12.75;12.75;;;;;;;;6491574;39;8828;-64
2024/04/21 21:56:50;;;;;;;;;13.25;13.25;;;;;;;;6490994;31;8903;-66
2024/04/21 22:02:52;;;;;;;;;15.50;15.00;;;;;;;;6491527;46;8899;-65
2024/04/21 22:09:05;;;;;;;;;4.50;4.50;;;;;;;;6491217;46;8912;-65
2024/04/21 22:15:07;;;;;;;;;11.00;11.00;;;;;;;;6491789;39;8898;-65
2024/04/21 22:21:10;;;;;;;;;14.50;13.75;;;;;;;;6490908;39;8887;-65
2024/04/21 22:27:22;;;;;;;;;12.67;9.00;;;;;;;;6490279;39;8883;-64
2024/04/21 22:33:35;;;;;;;;;13.00;11.00;;;;;;;;6491051;46;8848;-64
2024/04/21 22:39:40;;;;;;;;;14.00;13.00;;;;;;;;6491061;39;8856;-66
2024/04/21 22:45:44;;;;;;;;;14.00;13.00;;;;;;;;6522032;36;8846;-65
2024/04/21 22:51:50;;;;;;;;;14.67;13.00;;;;;;;;6490916;39;8898;-63
2024/04/21 22:57:52;;;;;;;;;11.67;11.33;;;;;;;;6491367;39;8961;-65
2024/04/21 23:03:58;;;;;;;;;13.00;13.00;;;;;;;;6490639;39;9166;-65
2024/04/21 23:09:59;;;;;;;;;12.50;12.50;;;;;;;;6490243;31;9036;-65
2024/04/21 23:16:08;;;;;;;;;14.00;14.00;;;;;;;;6491180;39;8891;-65
2024/04/21 23:22:12;;;;;;;;;12.25;11.75;;;;;;;;6489535;47;8861;-64
2024/04/21 23:28:16;;;;;;;;;10.33;10.33;;;;;;;;6490620;39;9001;-64
2024/04/21 23:34:24;;;;;;;;;10.67;10.67;;;;;;;;6491565;39;8917;-64
2024/04/21 23:40:31;;;;;;;;;17.00;14.75;;;;;;;;6492096;39;8976;-65
2024/04/21 23:46:40;;;;;;;;;11.50;11.50;;;;;;;;6492865;31;9658;-65
2024/04/21 23:52:45;;;;;;;;;13.25;11.75;;;;;;;;6491987;46;8876;-65
2024/04/21 23:58:53;;;;;;;;;11.75;10.00;;;;;;;;6492175;46;8968;-64
